Airfield :







YOU CAN JOIN US ON...

 
LOGIN :

Register | Disclaimer

   EN    FR    IT 

 









Legend :    VFR   Marginal VFR   IFR   Intensive IFR   Very Intensive IFR
Visi :
Ceiling :
>= 8 km
>= 3000ft
5 to 8 km
1000 to 3000 ft
1500m to 5 km
500 to 1000 ft
800 to 1500m
200 to 500 ft
< 800m
< 200 ft
Symbols :   Thunderstorms  Fog  Heavy snow  Heavy precipitations  Wind > 20 kt







- Airport Elevation : 83 ft


KBHB - Hancock County-Bar Harbor

CURRENT METAR :
  • 171856Z AUTO 21006KT 10SM CLR 24/22 A2982 RMK AO2 SLP100 T02390217

EXPIRED METARs :
  • 171817Z AUTO 20008KT 10SM OVC010 23/22 A2983 RMK AO2
  • 171756Z AUTO 17007KT 10SM OVC008 23/22 A2983 RMK AO2 RAE14B30E40 SLP103 P0000 60007 T02330217 10233 20200 56007
  • 171656Z AUTO VRB03KT 10SM -RA OVC006 22/21 A2984 RMK AO2 RAE16B52 CIG 005V010 SLP106 P0001 T02220211
  • 171647Z AUTO VRB03KT 10SM OVC006 22/21 A2984 RMK AO2 RAE16 CIG 005V010 P0001
  • 171628Z AUTO 18004KT 9SM BKN004 OVC019 22/21 A2984 RMK AO2 RAE16 P0001

TAF KBHB
Valid from the 17 at 19:00 until the 18 at 18:00 UTC


171859Z 1719/1818 23007KT P6SM SCT010
FM172000 23007KT P6SM VCTS SCT010 BKN040CB
TEMPO 1721/1801 2SM TSRA SCT010 OVC020CB
FM180100 26004KT 2SM BR SCT001
FM180300 32003KT P6SM BKN040
FM181400 06006KT P6SM FEW250
KZBW FIR / North America



MET'MAP, your aeronautical weather chart ! - Copyright ORBIFLY December 2007 - Disclaimer

ORBIFLY MET'MAP TEAM :

Programming & Development : Alexandra Zaïnal
Concept & Development : Baudouin d'Aumeries
Co-Development & Prog : Marc-Olivier Méhu
Technical & hardware support : Manuel Goepfert

Contact : metmap@orbifly.com




SOURCES & CREDITS :

   NOAA